INFORMACIÓN METAR y TAF
METAR FOR LQSA
ADDS - METARS form results

(0708 UTC 15 April 2021)
Data provider http://aviationweather.gov/metar/data/
 
METAR text: LQSA 150700Z 32004KT 260V020 9999 BKN050 04/M03 Q1021 NOSIG
Conditions at: LQSA (SARAJEVO/BUTMIR , BA) observed 0700 UTC 15 April 2021
Temperature: 4.0°C (39°F)
Dewpoint: -3.0°C (27°F) [RH = 60%]
Pressure (altimeter): 30.15 inches Hg (1021.0 mb)
Winds: from the NW (320 degrees) at 5 MPH (4 knots; 2.1 m/s)
Visibility: 6 or more miles (10+ km)
Ceiling: 5000 feet AGL
Clouds: broken clouds at 5000 feet AGL
Weather: no significant weather observed at this time

METAR text: LQSA 150630Z 32003KT 280V360 9999 SCT030 BKN055 03/M02 Q1021 NOSIG
Conditions at: LQSA (SARAJEVO/BUTMIR , BA) observed 0630 UTC 15 April 2021
Temperature: 3.0°C (37°F)
Dewpoint: -2.0°C (28°F) [RH = 70%]
Pressure (altimeter): 30.15 inches Hg (1021.0 mb)
Winds: from the NW (320 degrees) at 3 MPH (3 knots; 1.5 m/s)
Visibility: 6 or more miles (10+ km)
Ceiling: 5500 feet AGL
Clouds: scattered clouds at 3000 feet AGL
broken clouds at 5500 feet AGL
Weather: no significant weather observed at this time

Forecast for: LQSA (SARAJEVO/BUTMIR , BA)
Text: TAF LQSA 150549Z 1506/1606 33007KT 9999 BKN030 TX09/1513Z TNM01/1604Z
Forecast period: 0600 UTC 15 April 2021 to 0600 UTC 16 April 2021
Forecast type: FROM: standard forecast or significant change
Winds: from the NNW (330 degrees) at 8 MPH (7 knots; 3.6 m/s)
Visibility: 6 or more miles (10+ km)
Ceiling: 3000 feet AGL
Clouds: broken clouds at 3000 feet AGL
Weather: no significant weather forecast for this period
Text: PROB30
Forecast period: 1000 to 1600 UTC 15 April 2021
Forecast type: TEMPORARY: The following changes expected for less than half the time period
Visibility: missing
Ceiling: 3000 feet AGL
Clouds: few clouds at 2500 feet AGL
broken clouds at 3000 feet AGL
Weather: SHRA  (rain showers)

 MAPA DE AEROPUERTO

 INFORMACIÓN DE PISTA
Pista 12 Longitud 8666 ft Ancho 150 ft
Elevación 1643 ft Umbral desplazado 333 ft Rumbo de pista 117
Pista 30 Longitud 8666 ft Ancho 150 ft
Elevación 1690 ft Umbral desplazado 1666 ft Rumbo de pista 297

 FRECUANCIAS DEL AEROPUERTO
Tipo APP Nombre APP Frecuencia 136.45 MHZ
Tipo GCA Nombre GCA Frecuencia 119.4 MHZ
Tipo GND Nombre GND Frecuencia 121.9 MHZ
Tipo TWR Nombre TWR Frecuencia 118.25 MHZ

 RADIO AYUDAS DEL AEROPUERTO
Tipo NDB Nombre Sarajevo Frecuencia 436 KHZ
Tipo VOR-DME Nombre Sarajevo Frecuencia 116700 KHZ
Tipo NDB Nombre Kobiljaca Frecuencia 358 KHZ
Tipo VORTAC Nombre Sarajevo Frecuencia 108850 KHZ



Powered by Virtual Airlines Manager [v2.6.2]